createdAt,value
2023-04-19T00:00:47.344Z,100084.03
2023-04-19T00:03:14.900Z,100085.41
2023-04-19T00:05:42.607Z,100082.66
2023-04-19T00:08:09.516Z,100082.03
2023-04-19T00:10:36.665Z,100070.66
2023-04-19T00:13:03.618Z,100076.91
2023-04-19T00:15:44.951Z,100077.78
2023-04-19T00:18:24.971Z,100071.66
2023-04-19T00:21:11.923Z,100071.03
2023-04-19T00:23:52.013Z,100070.91
2023-04-19T00:26:38.951Z,100060.88
2023-04-19T00:29:25.881Z,100061.88
2023-04-19T00:32:06.392Z,100065.66
2023-04-19T00:34:52.867Z,100060.75
2023-04-19T00:37:39.874Z,100066.34
2023-04-19T00:40:27.925Z,100068.22
2023-04-19T00:43:18.076Z,100066.66
2023-04-19T00:46:04.856Z,100069.47
2023-04-19T00:48:45.400Z,100063.81
2023-04-19T00:51:31.808Z,100072.41
2023-04-19T00:54:19.928Z,100061.06
2023-04-19T00:57:06.861Z,100066.72
2023-04-19T00:59:47.795Z,100063.63
2023-04-19T01:02:34.988Z,100059.38
2023-04-19T01:05:15.408Z,100060.53
2023-04-19T01:08:01.941Z,100055.34
2023-04-19T01:10:48.868Z,100057.97
2023-04-19T01:13:35.832Z,100055.19
2023-04-19T01:16:22.989Z,100046.91
2023-04-19T01:19:02.920Z,100052.69
2023-04-19T01:21:50.871Z,100046.59
2023-04-19T01:24:31.993Z,100050.31
2023-04-19T01:27:20.826Z,100049.94
2023-04-19T01:30:01.104Z,100046.19
2023-04-19T01:32:47.828Z,100043.59
2023-04-19T01:35:34.794Z,100037.66
2023-04-19T01:38:22.799Z,100043.06
2023-04-19T01:41:02.959Z,100043.56
2023-04-19T01:43:49.793Z,100027.06
2023-04-19T01:46:36.824Z,100028.75
2023-04-19T01:49:25.009Z,100035.06
2023-04-19T01:52:04.812Z,100036.63
2023-04-19T01:54:54.653Z,100040.66
2023-04-19T01:57:36.877Z,100040.41
2023-04-19T02:00:24.762Z,100036.09
2023-04-19T02:03:11.994Z,100042.81
2023-04-19T02:06:00.693Z,100050.84
2023-04-19T02:08:41.970Z,100038.31
2023-04-19T02:11:28.729Z,100039.00
2023-04-19T02:14:11.670Z,100042.06
2023-04-19T02:16:58.873Z,100038.16
2023-04-19T02:19:45.705Z,100028.94
2023-04-19T02:22:26.072Z,100024.44
2023-04-19T02:25:12.746Z,100015.81
2023-04-19T02:27:53.855Z,100019.19
2023-04-19T02:30:40.680Z,100020.97
2023-04-19T02:33:33.687Z,100022.44
2023-04-19T02:36:13.822Z,100024.66
2023-04-19T02:39:02.662Z,100022.41
2023-04-19T02:41:58.721Z,100024.38
2023-04-19T02:44:45.910Z,100018.84
2023-04-19T02:47:32.787Z,100015.22
2023-04-19T02:50:14.084Z,100013.19
2023-04-19T02:53:03.685Z,100011.13
2023-04-19T02:55:44.017Z,100011.31
2023-04-19T02:58:32.762Z,100008.56
2023-04-19T03:01:13.306Z,100013.88
2023-04-19T03:03:59.812Z,100019.59
2023-04-19T03:06:46.781Z,100015.69
2023-04-19T03:09:28.816Z,100016.16
2023-04-19T03:12:16.591Z,100013.25
2023-04-19T03:15:03.648Z,100003.63
2023-04-19T03:17:44.106Z,100020.84
2023-04-19T03:20:32.653Z,100012.50
2023-04-19T03:23:12.986Z,100018.09
2023-04-19T03:26:00.651Z,100000.81
2023-04-19T03:28:48.595Z,100015.97
2023-04-19T03:31:39.788Z,100002.97
2023-04-19T03:34:20.087Z,100017.09
2023-04-19T03:37:08.572Z,100014.56
2023-04-19T03:39:51.111Z,100013.53
2023-04-19T03:42:47.675Z,100011.88
2023-04-19T03:45:44.705Z,100015.03
2023-04-19T03:48:24.690Z,100016.44
2023-04-19T03:51:11.597Z,100008.34
2023-04-19T03:53:51.706Z,100020.22
2023-04-19T03:56:38.593Z,100021.94
2023-04-19T03:59:19.737Z,100016.56
2023-04-19T04:02:13.675Z,100017.16
2023-04-19T04:04:55.228Z,100015.84
2023-04-19T04:07:42.621Z,100017.31
2023-04-19T04:10:22.974Z,100017.09
2023-04-19T04:13:09.533Z,100012.13
2023-04-19T04:15:55.911Z,100012.28
2023-04-19T04:18:42.603Z,100015.41
2023-04-19T04:21:24.359Z,100019.84
2023-04-19T04:24:14.740Z,100013.13
2023-04-19T04:27:12.271Z,100016.78
2023-04-19T04:29:59.660Z,100018.88
2023-04-19T04:32:41.181Z,100021.31
2023-04-19T04:35:28.531Z,100024.88
2023-04-19T04:38:24.130Z,100014.94
2023-04-19T04:41:12.545Z,100019.84
2023-04-19T04:44:12.103Z,100020.28
2023-04-19T04:46:53.588Z,100027.00
2023-04-19T04:49:42.553Z,100027.91
2023-04-19T04:52:31.572Z,100021.50
2023-04-19T04:55:24.524Z,100025.56
2023-04-19T04:58:05.914Z,100027.06
2023-04-19T05:01:12.519Z,100031.56
2023-04-19T05:03:53.712Z,100020.06
2023-04-19T05:06:40.548Z,100033.66
2023-04-19T05:09:27.609Z,100028.34
2023-04-19T05:12:14.577Z,100026.72
2023-04-19T05:15:01.534Z,100029.38
2023-04-19T05:17:43.916Z,100023.97
2023-04-19T05:20:31.485Z,100022.28
2023-04-19T05:23:18.950Z,100025.31
2023-04-19T05:26:06.524Z,100033.06
2023-04-19T05:28:47.926Z,100030.72
2023-04-19T05:31:48.547Z,100037.84
2023-04-19T05:34:39.497Z,100039.59
2023-04-19T05:37:28.512Z,100034.59
2023-04-19T05:40:22.445Z,100047.88
2023-04-19T05:43:02.978Z,100042.75
2023-04-19T05:45:50.480Z,100043.44
2023-04-19T05:48:30.863Z,100046.28
2023-04-19T05:51:40.413Z,100048.53
2023-04-19T05:54:40.821Z,100041.34
2023-04-19T05:57:27.493Z,100039.84
2023-04-19T06:00:09.818Z,100042.75
2023-04-19T06:03:04.526Z,100044.03
2023-04-19T06:05:44.982Z,100041.66
2023-04-19T06:08:31.415Z,100043.53
2023-04-19T06:11:26.527Z,100052.25
2023-04-19T06:14:19.729Z,100049.94
2023-04-19T06:17:06.644Z,100045.22
2023-04-19T06:19:46.401Z,100041.69
2023-04-19T06:22:33.475Z,100048.00
2023-04-19T06:25:13.415Z,100051.44
2023-04-19T06:27:53.782Z,100060.19
2023-04-19T06:30:40.428Z,100058.44
2023-04-19T06:33:20.967Z,100058.28
2023-04-19T06:36:07.433Z,100052.72
2023-04-19T06:38:47.839Z,100059.13
2023-04-19T06:41:34.384Z,100065.03
2023-04-19T06:44:21.402Z,100070.34
2023-04-19T06:47:08.378Z,100067.72
2023-04-19T06:49:48.841Z,100068.34
2023-04-19T06:52:35.355Z,100072.66
2023-04-19T06:55:15.875Z,100067.22
2023-04-19T06:58:02.342Z,100065.03
2023-04-19T07:00:49.319Z,100075.16
2023-04-19T07:03:29.898Z,100071.84
2023-04-19T07:06:16.377Z,100078.66
2023-04-19T07:08:56.677Z,100071.50
2023-04-19T07:11:43.367Z,100084.66
2023-04-19T07:14:23.859Z,100078.53
2023-04-19T07:17:12.365Z,100080.00
2023-04-19T07:19:54.408Z,100088.91
2023-04-19T07:22:41.487Z,100096.00
2023-04-19T07:25:28.355Z,100091.69
2023-04-19T07:40:29.037Z,100106.69
2023-04-19T07:43:09.362Z,100105.13
2023-04-19T07:45:56.062Z,100100.72
2023-04-19T07:48:36.858Z,100107.97
2023-04-19T07:51:30.982Z,100111.34
2023-04-19T07:54:11.535Z,100104.22
2023-04-19T07:56:57.954Z,100113.34
2023-04-19T07:59:44.923Z,100107.41
2023-04-19T08:02:32.195Z,100105.28
2023-04-19T08:05:13.606Z,100119.75
2023-04-19T08:08:00.936Z,100110.13
2023-04-19T08:10:41.357Z,100121.19
2023-04-19T08:13:27.916Z,100114.03
2023-04-19T08:16:51.732Z,100122.38
2023-04-19T08:19:15.152Z,100123.97
2023-04-19T08:22:01.911Z,100122.03
2023-04-19T08:24:42.016Z,100129.25
2023-04-19T08:27:28.942Z,100120.06
2023-04-19T08:30:09.345Z,100121.69
2023-04-19T08:32:57.129Z,100125.19
2023-04-19T08:35:37.133Z,100129.22
2023-04-19T08:38:23.900Z,100125.41
2023-04-19T08:41:10.963Z,100130.06
2023-04-19T08:43:52.539Z,100126.16
2023-04-19T08:46:38.924Z,100131.41
2023-04-19T08:49:21.154Z,100123.88
2023-04-19T08:52:10.993Z,100128.22
2023-04-19T08:54:52.261Z,100125.63
2023-04-19T08:57:38.929Z,100121.28
2023-04-19T09:00:19.825Z,100123.03
2023-04-19T09:03:07.202Z,100124.03
2023-04-19T09:05:47.625Z,100122.97
2023-04-19T09:08:44.894Z,100129.50
2023-04-19T09:11:40.484Z,100131.81
2023-04-19T09:14:30.051Z,100129.97
2023-04-19T09:17:20.906Z,100144.25
2023-04-19T09:20:07.969Z,100133.31
2023-04-19T09:23:05.031Z,100129.41
2023-04-19T09:29:05.809Z,100127.47
2023-04-19T09:31:53.080Z,100125.47
2023-04-19T09:34:33.332Z,100131.72
2023-04-19T09:40:37.885Z,100128.94
2023-04-19T09:43:57.499Z,100132.53
2023-04-19T09:46:53.901Z,100131.31
2023-04-19T09:49:46.077Z,100130.00
2023-04-19T09:52:38.991Z,100135.03
2023-04-19T09:58:10.823Z,100135.66
2023-04-19T10:01:10.498Z,100134.16
2023-04-19T10:04:19.971Z,100133.19
2023-04-19T10:07:29.513Z,100133.56
2023-04-19T10:10:19.543Z,100132.63
2023-04-19T10:13:18.841Z,100136.22
2023-04-19T10:16:11.512Z,100127.44
2023-04-19T10:18:59.865Z,100140.63
2023-04-19T10:21:48.794Z,100127.53
2023-04-19T10:24:28.969Z,100127.69
2023-04-19T10:27:19.780Z,100127.78
2023-04-19T10:30:12.798Z,100124.75
2023-04-19T10:33:04.897Z,100128.69
2023-04-19T10:35:44.934Z,100131.00
2023-04-19T10:38:52.871Z,100134.16
2023-04-19T10:42:04.912Z,100136.00
2023-04-19T10:45:30.916Z,100140.50
2023-04-19T10:48:17.760Z,100136.19
2023-04-19T10:50:58.858Z,100127.47
2023-04-19T10:54:04.745Z,100131.16
2023-04-19T10:57:11.987Z,100131.00
2023-04-19T10:59:51.904Z,100126.28
2023-04-19T11:02:39.807Z,100133.34
2023-04-19T11:05:20.431Z,100130.47
2023-04-19T11:08:06.737Z,100127.31
2023-04-19T11:10:48.940Z,100130.44
2023-04-19T11:13:35.772Z,100132.31
2023-04-19T11:16:19.290Z,100129.06
2023-04-19T11:19:06.801Z,100132.31
2023-04-19T11:21:46.903Z,100127.66
2023-04-19T11:24:33.734Z,100138.28
2023-04-19T11:27:21.672Z,100141.75
2023-04-19T11:30:13.694Z,100135.09
2023-04-19T11:32:58.897Z,100133.66
2023-04-19T11:35:46.677Z,100140.78
2023-04-19T11:38:33.682Z,100142.00
2023-04-19T11:41:20.694Z,100144.06
2023-04-19T11:44:07.688Z,100138.75
2023-04-19T11:47:10.686Z,100139.28
2023-04-19T11:49:57.752Z,100137.50
2023-04-19T11:52:38.092Z,100137.09
2023-04-19T11:55:34.673Z,100140.13
2023-04-19T11:58:29.525Z,100136.69
2023-04-19T12:01:23.702Z,100128.81
2023-04-19T12:04:05.165Z,100134.31
2023-04-19T12:06:51.624Z,100130.28
2023-04-19T12:09:37.108Z,100127.63
2023-04-19T12:12:24.616Z,100121.78
2023-04-19T12:15:06.589Z,100125.06
2023-04-19T12:18:13.736Z,100113.84
2023-04-19T12:20:55.040Z,100115.69
2023-04-19T12:23:41.661Z,100114.00
2023-04-19T12:26:22.052Z,100108.84
2023-04-19T12:29:09.647Z,100107.31
2023-04-19T12:31:56.843Z,100096.75
2023-04-19T12:34:37.635Z,100101.91
2023-04-19T12:37:18.118Z,100105.00
2023-04-19T12:40:04.609Z,100103.19
2023-04-19T12:42:51.618Z,100095.75
2023-04-19T12:45:32.925Z,100103.84
2023-04-19T12:48:21.620Z,100100.19
2023-04-19T12:51:01.872Z,100097.38
2023-04-19T12:53:48.640Z,100100.19
2023-04-19T12:56:28.665Z,100097.94
2023-04-19T12:59:15.916Z,100098.81
2023-04-19T13:01:55.775Z,100100.41
2023-04-19T13:04:43.753Z,100100.63
2023-04-19T13:07:23.769Z,100093.31
2023-04-19T13:10:10.613Z,100088.72
2023-04-19T13:12:50.754Z,100096.38
2023-04-19T13:15:37.594Z,100089.88
2023-04-19T13:18:24.582Z,100086.63
2023-04-19T13:21:11.900Z,100100.50
2023-04-19T13:23:51.606Z,100095.41
2023-04-19T13:26:33.967Z,100099.47
2023-04-19T13:29:20.573Z,100090.09
2023-04-19T13:32:01.235Z,100088.78
2023-04-19T13:34:47.593Z,100086.66
2023-04-19T13:37:28.012Z,100097.84
2023-04-19T13:40:19.248Z,100093.38
2023-04-19T13:43:06.595Z,100088.63
2023-04-19T13:45:46.710Z,100086.47
2023-04-19T13:48:35.563Z,100082.59
2023-04-19T13:51:18.419Z,100075.22
2023-04-19T13:54:05.566Z,100072.53
2023-04-19T13:56:52.642Z,100079.59
2023-04-19T13:59:32.882Z,100078.16
2023-04-19T14:02:19.615Z,100063.91
2023-04-19T14:05:06.528Z,100065.97
2023-04-19T14:07:46.665Z,100073.09
2023-04-19T14:10:33.472Z,100068.19
2023-04-19T14:13:13.716Z,100059.13
2023-04-19T14:16:00.523Z,100061.84
2023-04-19T14:18:47.517Z,100066.72
2023-04-19T14:21:28.611Z,100064.81
2023-04-19T14:24:15.803Z,100051.72
2023-04-19T14:27:11.061Z,100060.66
2023-04-19T14:29:51.633Z,100058.94
2023-04-19T14:32:38.655Z,100062.78
2023-04-19T14:35:18.572Z,100059.38
2023-04-19T14:38:05.514Z,100055.50
2023-04-19T14:41:00.500Z,100056.44
2023-04-19T14:43:40.868Z,100050.94
2023-04-19T14:46:27.732Z,100054.97
2023-04-19T14:49:14.740Z,100055.31
2023-04-19T14:52:01.503Z,100048.13
2023-04-19T14:54:48.603Z,100053.13
2023-04-19T14:57:28.437Z,100057.13
2023-04-19T15:00:09.636Z,100053.03
2023-04-19T15:02:56.544Z,100054.78
2023-04-19T15:05:37.017Z,100047.50
2023-04-19T15:08:30.331Z,100054.09
2023-04-19T15:11:10.962Z,100054.91
2023-04-19T15:13:57.441Z,100059.16
2023-04-19T15:16:37.989Z,100051.53
2023-04-19T15:19:25.428Z,100059.53
2023-04-19T15:22:06.379Z,100062.75
2023-04-19T15:24:53.500Z,100058.38
2023-04-19T15:27:40.834Z,100063.28
2023-04-19T15:30:20.424Z,100059.84
2023-04-19T15:33:01.373Z,100057.97
2023-04-19T15:35:48.371Z,100068.59
2023-04-19T15:38:37.422Z,100066.63
2023-04-19T15:41:31.408Z,100063.06
2023-04-19T15:44:18.441Z,100059.69
2023-04-19T15:47:05.354Z,100052.59
2023-04-19T15:49:47.444Z,100051.97
2023-04-19T15:52:34.380Z,100056.00
2023-04-19T15:55:14.825Z,100054.94
2023-04-19T15:58:01.458Z,100062.03
2023-04-19T16:00:41.758Z,100058.09
2023-04-19T16:03:28.465Z,100058.84
2023-04-19T16:06:08.810Z,100060.59
2023-04-19T16:08:55.323Z,100060.06
2023-04-19T16:11:42.347Z,100061.03
2023-04-19T16:14:29.477Z,100055.66
2023-04-19T16:17:09.742Z,100054.09
2023-04-19T16:19:56.405Z,100063.16
2023-04-19T16:22:43.343Z,100061.72
2023-04-19T16:25:23.461Z,100054.59
2023-04-19T16:28:10.382Z,100050.63
2023-04-19T16:30:52.615Z,100054.25
2023-04-19T16:33:39.393Z,100059.91
2023-04-19T16:36:19.513Z,100061.00
2023-04-19T16:39:07.336Z,100061.28
2023-04-19T16:41:47.462Z,100064.72
2023-04-19T16:44:34.345Z,100073.78
2023-04-19T16:47:14.488Z,100069.47
2023-04-19T16:50:01.291Z,100070.97
2023-04-19T16:52:41.688Z,100077.81
2023-04-19T16:55:28.443Z,100068.81
2023-04-19T16:58:08.406Z,100076.81
2023-04-19T17:00:55.471Z,100076.81
2023-04-19T17:03:35.747Z,100086.59
2023-04-19T17:06:22.334Z,100088.44
2023-04-19T17:09:05.345Z,100086.94
2023-04-19T17:11:52.397Z,100086.84
2023-04-19T17:14:39.342Z,100094.00
2023-04-19T17:17:20.204Z,100094.22
2023-04-19T17:20:07.311Z,100094.34
2023-04-19T17:22:47.794Z,100091.91
2023-04-19T17:25:34.288Z,100101.16
2023-04-19T17:28:14.746Z,100101.03
2023-04-19T17:31:01.329Z,100107.72
2023-04-19T17:33:41.853Z,100111.88
2023-04-19T17:36:28.263Z,100117.53
2023-04-19T17:39:22.282Z,100115.91
2023-04-19T17:42:02.644Z,100121.34
2023-04-19T17:44:50.259Z,100118.25
2023-04-19T17:47:30.596Z,100120.88
2023-04-19T17:50:25.329Z,100119.81
2023-04-19T17:53:12.338Z,100133.88
2023-04-19T17:55:52.515Z,100123.28
2023-04-19T17:58:39.279Z,100131.94
2023-04-19T18:01:19.370Z,100132.28
2023-04-19T18:04:06.493Z,100135.28
2023-04-19T18:06:53.217Z,100130.78
2023-04-19T18:09:33.611Z,100136.41
2023-04-19T18:12:20.228Z,100146.34
2023-04-19T18:15:07.285Z,100140.31
2023-04-19T18:17:47.526Z,100150.88
2023-04-19T18:20:34.218Z,100147.47
2023-04-19T18:23:14.511Z,100150.22
2023-04-19T18:26:02.204Z,100150.56
2023-04-19T18:28:42.299Z,100147.31
2023-04-19T18:31:29.260Z,100148.72
2023-04-19T18:34:11.903Z,100149.78
2023-04-19T18:37:05.165Z,100147.31
2023-04-19T18:39:52.352Z,100152.31
2023-04-19T18:42:32.184Z,100152.13
2023-04-19T18:45:19.176Z,100158.19
2023-04-19T18:48:06.213Z,100158.06
2023-04-19T18:50:46.633Z,100149.84
2023-04-19T18:53:33.177Z,100161.13
2023-04-19T18:56:20.501Z,100155.06
2023-04-19T18:59:00.492Z,100158.63
2023-04-19T19:01:47.221Z,100151.84
2023-04-19T19:10:18.123Z,100161.22
2023-04-19T19:13:08.121Z,100165.25
2023-04-19T19:15:48.366Z,100160.13
2023-04-19T19:18:35.123Z,100167.63
2023-04-19T19:21:15.497Z,100162.97
2023-04-19T19:24:03.154Z,100163.91
2023-04-19T19:26:50.374Z,100166.19
2023-04-19T19:42:17.040Z,100165.03
2023-04-19T19:45:05.012Z,100176.88
2023-04-19T19:47:46.145Z,100171.97
2023-04-19T19:51:10.741Z,100163.38
2023-04-19T19:53:42.929Z,100161.47
2023-04-19T19:56:29.970Z,100161.84
2023-04-19T19:59:10.898Z,100161.28
2023-04-19T20:01:58.100Z,100162.16
2023-04-19T20:04:46.152Z,100159.47
2023-04-19T20:07:58.990Z,100155.13
2023-04-19T20:10:33.021Z,100150.78
2023-04-19T20:13:13.512Z,100159.84
2023-04-19T20:15:59.989Z,100147.75
2023-04-19T20:18:49.304Z,100147.97
2023-04-19T20:21:29.016Z,100140.94
2023-04-19T20:24:15.908Z,100138.72
2023-04-19T20:26:57.231Z,100148.81
2023-04-19T20:29:44.031Z,100152.84
2023-04-19T20:32:24.337Z,100155.91
2023-04-19T20:35:16.155Z,100154.59
2023-04-19T20:38:02.417Z,100149.59
2023-04-19T20:40:55.931Z,100145.22
2023-04-19T20:43:43.073Z,100150.59
2023-04-19T20:46:22.998Z,100157.94
2023-04-19T20:49:10.072Z,100163.00
2023-04-19T20:51:51.534Z,100150.88
2023-04-19T20:54:37.855Z,100147.13
2023-04-19T20:57:18.066Z,100144.47
2023-04-19T21:00:04.975Z,100145.69
2023-04-19T21:02:45.269Z,100138.94
2023-04-19T21:05:31.894Z,100136.25
2023-04-19T21:08:12.013Z,100145.50
2023-04-19T21:10:58.833Z,100135.31
2023-04-19T21:13:45.821Z,100134.81
2023-04-19T21:16:26.399Z,100133.69
2023-04-19T21:19:12.928Z,100131.88
2023-04-19T21:21:59.834Z,100138.41
2023-04-19T21:24:46.953Z,100130.25
2023-04-19T21:27:33.790Z,100131.06
2023-04-19T21:30:23.111Z,100123.31
2023-04-19T21:33:03.260Z,100126.16
2023-04-19T21:35:49.876Z,100127.09
2023-04-19T21:38:30.291Z,100122.84
2023-04-19T21:41:17.822Z,100116.91
2023-04-19T21:43:58.413Z,100113.81
2023-04-19T21:46:44.828Z,100118.69
2023-04-19T21:49:31.885Z,100118.44
2023-04-19T21:52:12.960Z,100115.16
2023-04-19T21:54:59.841Z,100114.47
2023-04-19T21:57:40.013Z,100104.50
2023-04-19T22:00:26.850Z,100104.38
2023-04-19T22:03:07.119Z,100111.19
2023-04-19T22:05:53.889Z,100110.16
2023-04-19T22:08:35.009Z,100110.69
2023-04-19T22:11:21.801Z,100112.25
2023-04-19T22:14:11.765Z,100114.28
2023-04-19T22:17:01.219Z,100111.09
2023-04-19T22:19:40.965Z,100104.50
2023-04-19T22:22:27.753Z,100107.94
2023-04-19T22:25:14.748Z,100108.72
2023-04-19T22:27:55.295Z,100105.81
2023-04-19T22:30:41.769Z,100100.97
2023-04-19T22:33:22.224Z,100102.13
2023-04-19T22:36:08.721Z,100108.81
2023-04-19T22:38:52.503Z,100104.16
2023-04-19T22:42:05.757Z,100111.31
2023-04-19T22:44:55.975Z,100109.56
2023-04-19T22:47:47.712Z,100107.50
2023-04-19T22:50:28.735Z,100109.59
2023-04-19T22:53:19.667Z,100102.31
2023-04-19T22:56:10.761Z,100097.00
2023-04-19T22:59:16.317Z,100108.38
2023-04-19T23:02:17.740Z,100109.22
2023-04-19T23:05:25.172Z,100103.84
2023-04-19T23:08:20.233Z,100105.50
2023-04-19T23:11:06.700Z,100108.09
2023-04-19T23:13:47.524Z,100112.47
2023-04-19T23:16:39.666Z,100104.22
2023-04-19T23:19:20.210Z,100104.97
2023-04-19T23:22:06.687Z,100094.63
2023-04-19T23:24:53.787Z,100089.41
2023-04-19T23:27:33.721Z,100094.44
2023-04-19T23:30:14.198Z,100089.06
2023-04-19T23:33:00.710Z,100089.38
2023-04-19T23:35:41.213Z,100081.91
2023-04-19T23:38:27.839Z,100085.47
2023-04-19T23:41:23.693Z,100080.28
2023-04-19T23:44:04.024Z,100070.56
2023-04-19T23:46:50.758Z,100073.16
2023-04-19T23:49:37.730Z,100071.16
2023-04-19T23:52:17.646Z,100064.22
2023-04-19T23:54:58.097Z,100070.41
2023-04-19T23:57:47.666Z,100060.38
